Angler Guide Weather for Koosharem -
Koosharem, Utah Current Weather Conditions
Enter your "Place, State", US Zip Code or ICAO:  
NowCast ZoneCast Warnings/Advisories Hourly Track Special Radar
Koosharem, Utah (84744)  Lat: 38.51N, Lon: 111.88W
Wx Zone: UTZ017 ICAO Used: KBCE
Current Conditions at nearby:
Bryce Canyon, Bryce Canyon Airport, UT
Updated: UNKNOWN
Sun & Moon Information:
Overcast
Overcast
Temp: 43°F
Humidity: 82%
Wind Speed: NW 9.2 MPH (8 KT)
Barometer: 30.01 in.
Dewpoint: 38°F
Heat Index: 43°F
Wind Chill: 38°F
Civil Twilight: 5:55 AM MDT
Moonrise: 10:59 PM MDT Moon Phase:
Waning Gibbous Moon
Waning Gibbous Moon
Moonset: 8:26 AM MDT
Sunrise: 6:24 AM MDT
Sunset: 8:23 PM MDT
Civil Twilight: 8:52 PM MDT
Forecast for Koosharem, UT:
(Forecast based on TAF for )
0600 PM MDT SAT NOV 29 2014
  
EVENINGOVERNIGHTMORNINGAFTERNOON
TAF based forecast:
Dated: 0600 PM MDT SAT NOV 29 2014
Evening....
Overnight....
Morning....
Afternoon....
Original Encoded TAF:
Dated: 0600 PM MDT SAT NOV 29 2014
2015/05/05 18:21
TAF KBCE 051720Z 0518/0618 30011G16KT P6SM -SHRA VCTS SCT030CB BKN050 
     FM060100 27007KT P6SM VCSH SCT040 BKN060



Powered by Angler Guide.com
Copyright 2007, all rights reserved.